Time;durP1;ratioP1;P1;durP2;ratioP2;P2;SDS_P1;SDS_P2;PMS_P1;PMS_P2;Temp;Humidity;BMP_temperature;BMP_pressure;BME280_temperature;BME280_humidity;BME280_pressure;Samples;Min_cycle;Max_cycle;Signal;HPM_P1;HPM_P2
2021/08/05 00:00:35;;;;;;;0.43;0.30;;;15.70;1.00;;;;;;5080046;28;20035;-88
2021/08/05 00:03:02;;;;;;;0.10;0.10;;;15.60;1.00;;;;;;5083365;28;20111;-88
2021/08/05 00:05:28;;;;;;;0.08;0.08;;;15.70;1.00;;;;;;5082239;28;20112;-87
2021/08/05 00:07:53;;;;;;;0.00;0.00;;;15.70;1.00;;;;;;5081865;28;20143;-87
2021/08/05 00:10:19;;;;;;;0.13;0.13;;;15.70;1.00;;;;;;5086184;28;20025;-87
2021/08/05 00:12:45;;;;;;;0.38;0.38;;;15.70;1.00;;;;;;5083729;28;20081;-87
2021/08/05 00:15:11;;;;;;;0.23;0.23;;;15.60;1.00;;;;;;5091997;28;20031;-87
2021/08/05 00:17:37;;;;;;;0.10;0.10;;;15.70;1.00;;;;;;5084634;28;20095;-87
2021/08/05 00:20:04;;;;;;;0.10;0.10;;;15.60;1.00;;;;;;5085559;28;20024;-87
2021/08/05 00:22:30;;;;;;;0.00;0.00;;;15.60;1.00;;;;;;5083619;28;20089;-87
2021/08/05 00:24:55;;;;;;;0.00;0.00;;;15.60;1.00;;;;;;5085911;28;20036;-87
2021/08/05 00:27:21;;;;;;;0.00;0.00;;;15.70;1.00;;;;;;5084136;28;20028;-87
2021/08/05 00:29:47;;;;;;;0.00;0.00;;;15.60;99.90;;;;;;5081887;28;20028;-88
2021/08/05 00:32:13;;;;;;;0.00;0.00;;;15.60;99.90;;;;;;5082824;28;20036;-87
2021/08/05 00:34:39;;;;;;;0.20;0.20;;;15.70;1.00;;;;;;5078246;28;20274;-88
2021/08/05 00:37:04;;;;;;;11.37;0.40;;;15.70;99.90;;;;;;5077287;28;20032;-87
2021/08/05 00:39:30;;;;;;;0.57;0.23;;;15.80;99.90;;;;;;5067898;28;20064;-87
2021/08/05 00:41:56;;;;;;;0.10;0.10;;;15.70;99.90;;;;;;5067814;28;20060;-88
2021/08/05 00:44:22;;;;;;;0.00;0.00;;;15.70;1.00;;;;;;5063041;28;20028;-88
2021/08/05 00:46:48;;;;;;;0.00;0.00;;;15.70;1.00;;;;;;5060491;28;20028;-88
2021/08/05 00:49:14;;;;;;;0.30;0.30;;;15.70;1.00;;;;;;5062855;28;20378;-88
2021/08/05 00:51:39;;;;;;;0.10;0.10;;;15.80;1.00;;;;;;5064095;28;20440;-89
2021/08/05 00:54:07;;;;;;;0.53;0.53;;;15.80;1.00;;;;;;5056417;28;20383;-89
2021/08/05 00:56:33;;;;;;;6.35;0.85;;;15.80;1.00;;;;;;5059075;28;20033;-89
2021/08/05 00:58:59;;;;;;;0.10;0.10;;;15.80;99.90;;;;;;5057504;28;20043;-89
2021/08/05 01:01:31;;;;;;;0.50;0.47;;;15.70;99.90;;;;;;5058422;28;20539;-89
2021/08/05 01:03:58;;;;;;;2.67;0.65;;;15.80;99.90;;;;;;5058086;28;20077;-89
2021/08/05 01:06:36;;;;;;;0.13;0.13;;;15.80;99.90;;;;;;5056115;28;20032;-89
2021/08/05 01:09:07;;;;;;;0.30;0.30;;;15.80;99.90;;;;;;5060392;28;20431;-89
2021/08/05 01:11:41;;;;;;;0.03;0.03;;;15.80;99.90;;;;;;5057618;28;20091;-89
2021/08/05 01:14:12;;;;;;;0.00;0.00;;;15.80;99.90;;;;;;5057492;28;20021;-88
2021/08/05 01:16:43;;;;;;;0.00;0.00;;;15.80;99.90;;;;;;5057015;28;20024;-88
2021/08/05 01:19:17;;;;;;;0.17;0.17;;;15.70;99.90;;;;;;5054874;28;20039;-87
2021/08/05 01:22:05;;;;;;;0.00;0.00;;;15.80;1.00;;;;;;5058378;28;20055;-88
2021/08/05 01:24:37;;;;;;;0.00;0.00;;;15.80;1.00;;;;;;5062763;28;20024;-88
2021/08/05 01:27:05;;;;;;;0.10;0.10;;;15.70;1.00;;;;;;5053842;28;20052;-87
2021/08/05 01:29:37;;;;;;;0.10;0.10;;;15.70;1.00;;;;;;5050065;28;20108;-88
2021/08/05 01:32:06;;;;;;;0.10;0.10;;;15.70;1.00;;;;;;5060032;28;20048;-88
2021/08/05 01:34:32;;;;;;;1.27;1.10;;;15.70;99.90;;;;;;5060661;28;20028;-88
2021/08/05 01:36:59;;;;;;;0.00;0.00;;;15.70;99.90;;;;;;5058170;28;20033;-88
2021/08/05 01:39:26;;;;;;;;;;;15.80;99.90;;;;;;5061408;28;20718;-88
2021/08/05 01:41:53;;;;;;;0.03;0.03;;;15.70;99.90;;;;;;5051881;28;19920;-88
2021/08/05 01:44:19;;;;;;;0.15;0.15;;;15.70;1.00;;;;;;5055095;28;20103;-88
2021/08/05 01:46:48;;;;;;;0.00;0.00;;;15.70;1.00;;;;;;5054615;28;20029;-88
2021/08/05 01:49:15;;;;;;;0.10;0.10;;;15.70;1.00;;;;;;5057421;28;20107;-88
2021/08/05 01:51:41;;;;;;;0.00;0.00;;;15.70;1.00;;;;;;5062027;28;20059;-89
2021/08/05 01:54:08;;;;;;;0.00;0.00;;;15.60;1.00;;;;;;5063486;28;20053;-88
2021/08/05 01:56:34;;;;;;;0.10;0.10;;;15.60;1.00;;;;;;5062993;28;20098;-88
2021/08/05 01:59:00;;;;;;;0.03;0.03;;;15.60;1.00;;;;;;5054760;28;20082;-88
2021/08/05 02:01:26;;;;;;;0.10;0.10;;;15.60;1.00;;;;;;5058771;28;20039;-88
2021/08/05 02:04:29;;;;;;;0.10;0.10;;;15.60;1.00;;;;;;5057435;28;20025;-89
2021/08/05 02:06:57;;;;;;;0.22;0.22;;;15.60;1.00;;;;;;5049293;28;20492;-88
2021/08/05 02:09:35;;;;;;;0.00;0.00;;;15.60;1.00;;;;;;5052656;28;20059;-89
2021/08/05 02:12:02;;;;;;;0.00;0.00;;;15.60;1.00;;;;;;5055429;28;20516;-88
2021/08/05 02:14:30;;;;;;;1.98;0.57;;;15.60;1.00;;;;;;5055818;28;20025;-88
2021/08/05 02:17:00;;;;;;;0.10;0.10;;;15.60;1.00;;;;;;5056295;28;20455;-88
2021/08/05 02:19:26;;;;;;;0.00;0.00;;;15.50;1.00;;;;;;5057306;28;20044;-88
2021/08/05 02:21:52;;;;;;;0.10;0.10;;;15.50;1.00;;;;;;5057720;28;20028;-88
2021/08/05 02:24:20;;;;;;;0.47;0.47;;;15.50;1.00;;;;;;5056518;28;20286;-88
2021/08/05 02:26:46;;;;;;;2.05;0.20;;;15.60;1.00;;;;;;5053844;28;20033;-88
2021/08/05 02:29:13;;;;;;;0.10;0.10;;;15.60;1.00;;;;;;5062000;28;20044;-88
2021/08/05 02:31:39;;;;;;;0.10;0.10;;;15.60;1.00;;;;;;5054475;28;20712;-88
2021/08/05 02:34:08;;;;;;;0.00;0.00;;;15.50;1.00;;;;;;5059826;28;20029;-88
2021/08/05 02:36:35;;;;;;;0.10;0.10;;;15.50;1.00;;;;;;5058646;28;20051;-88
2021/08/05 02:39:01;;;;;;;0.10;0.10;;;15.40;1.00;;;;;;5051754;28;20533;-88
2021/08/05 02:41:29;;;;;;;1.87;1.30;;;15.40;1.00;;;;;;5062805;28;20071;-88
2021/08/05 02:43:56;;;;;;;0.08;0.08;;;15.40;1.00;;;;;;5058394;28;20037;-89
2021/08/05 02:46:24;;;;;;;0.10;0.10;;;15.50;1.00;;;;;;5056502;28;20382;-88
2021/08/05 02:48:51;;;;;;;0.73;0.63;;;15.50;1.00;;;;;;5053834;28;20106;-87
2021/08/05 02:51:17;;;;;;;0.03;0.03;;;15.60;1.00;;;;;;5063966;28;20024;-87
2021/08/05 02:53:45;;;;;;;0.98;0.47;;;15.60;1.00;;;;;;5057168;28;20020;-87
2021/08/05 02:56:11;;;;;;;0.00;0.00;;;15.60;1.00;;;;;;5054388;28;20040;-87
2021/08/05 02:58:38;;;;;;;0.05;0.05;;;15.50;1.00;;;;;;5056225;28;20029;-86
2021/08/05 03:01:04;;;;;;;;;;;15.50;1.00;;;;;;5051692;28;20033;-87
2021/08/05 03:03:36;;;;;;;0.90;0.80;;;15.60;1.00;;;;;;5062691;28;19923;-87
2021/08/05 03:06:05;;;;;;;0.25;0.20;;;15.50;1.00;;;;;;5053482;28;20051;-88
2021/08/05 03:08:43;;;;;;;0.17;0.17;;;15.50;1.00;;;;;;5064748;28;20028;-88
2021/08/05 03:11:11;;;;;;;0.10;0.10;;;15.50;1.00;;;;;;5061540;28;20075;-88
2021/08/05 03:13:39;;;;;;;10.70;0.43;;;15.50;1.00;;;;;;5061265;28;20507;-88
2021/08/05 03:16:07;;;;;;;0.08;0.08;;;15.50;1.00;;;;;;5063159;28;20024;-88
2021/08/05 03:18:35;;;;;;;0.20;0.20;;;15.50;1.00;;;;;;5055970;28;20023;-88
2021/08/05 03:21:03;;;;;;;6.70;1.75;;;15.50;1.00;;;;;;5057693;28;20037;-87
2021/08/05 03:23:32;;;;;;;0.10;0.10;;;15.50;1.00;;;;;;5059932;28;20044;-88
2021/08/05 03:26:00;;;;;;;0.32;0.30;;;15.50;1.00;;;;;;5047559;28;20488;-88
2021/08/05 03:28:27;;;;;;;0.00;0.00;;;15.50;1.00;;;;;;5062429;28;20024;-88
2021/08/05 03:30:56;;;;;;;0.20;0.20;;;15.60;1.00;;;;;;5052496;28;20835;-88
2021/08/05 03:33:24;;;;;;;0.10;0.10;;;15.50;1.00;;;;;;5052992;28;20485;-88
2021/08/05 03:35:51;;;;;;;0.00;0.00;;;15.50;1.00;;;;;;5049825;28;20108;-88
2021/08/05 03:38:18;;;;;;;0.20;0.20;;;15.50;1.00;;;;;;5057752;28;20024;-89
2021/08/05 03:40:48;;;;;;;0.00;0.00;;;15.50;1.00;;;;;;5051976;28;20021;-88
2021/08/05 03:43:16;;;;;;;0.20;0.20;;;15.40;1.00;;;;;;5055013;28;20053;-88
2021/08/05 03:45:44;;;;;;;0.00;0.00;;;15.30;1.00;;;;;;5054116;28;20111;-88
2021/08/05 03:48:11;;;;;;;0.00;0.00;;;15.30;1.00;;;;;;5051915;28;20095;-88
2021/08/05 03:50:39;;;;;;;0.50;0.50;;;15.30;1.00;;;;;;5057141;28;20505;-88
2021/08/05 03:53:09;;;;;;;0.10;0.10;;;15.30;1.00;;;;;;5059015;28;20039;-88
2021/08/05 03:55:36;;;;;;;0.10;0.10;;;15.40;1.00;;;;;;5061317;28;20489;-87
2021/08/05 03:58:06;;;;;;;0.17;0.10;;;15.40;1.00;;;;;;5053227;28;20032;-87
2021/08/05 04:00:33;;;;;;;0.05;0.05;;;15.40;1.00;;;;;;5054688;28;20485;-87
2021/08/05 04:02:59;;;;;;;0.30;0.30;;;15.40;1.00;;;;;;5055165;28;20071;-88
2021/08/05 04:05:26;;;;;;;0.85;0.85;;;15.40;1.00;;;;;;5059502;28;20036;-88
2021/08/05 04:07:53;;;;;;;0.10;0.10;;;15.30;1.00;;;;;;5050608;28;20513;-88
2021/08/05 04:10:19;;;;;;;0.10;0.10;;;15.20;1.00;;;;;;5056327;28;20029;-89
2021/08/05 04:12:45;;;;;;;0.00;0.00;;;15.20;1.00;;;;;;5050641;28;20029;-89
2021/08/05 04:15:11;;;;;;;0.10;0.10;;;15.20;1.00;;;;;;5050880;28;20028;-87
2021/08/05 04:17:38;;;;;;;0.47;0.47;;;15.20;1.00;;;;;;5052283;28;20051;-88
2021/08/05 04:20:04;;;;;;;;;;;15.20;1.00;;;;;;5056525;28;20378;-88
2021/08/05 04:22:31;;;;;;;0.77;0.30;;;15.20;1.00;;;;;;5052298;28;19912;-88
2021/08/05 04:24:57;;;;;;;;;;;15.20;1.00;;;;;;5062178;28;20498;-88
2021/08/05 04:27:24;;;;;;;0.00;0.00;;;15.10;1.00;;;;;;5062014;28;19904;-88
2021/08/05 04:29:50;;;;;;;3.17;0.95;;;15.10;1.00;;;;;;5062641;28;20105;-88
2021/08/05 04:32:17;;;;;;;0.20;0.20;;;15.00;1.00;;;;;;5061695;28;20112;-88
2021/08/05 04:34:44;;;;;;;0.20;0.20;;;15.00;1.00;;;;;;5051268;28;20378;-88
2021/08/05 04:37:10;;;;;;;0.10;0.10;;;15.00;1.00;;;;;;5051109;28;20036;-88
2021/08/05 04:39:38;;;;;;;0.45;0.45;;;15.00;1.00;;;;;;5050660;28;20498;-88
2021/08/05 04:42:03;;;;;;;0.10;0.10;;;14.90;1.00;;;;;;5052113;28;20060;-88
2021/08/05 04:44:29;;;;;;;0.07;0.07;;;14.90;1.00;;;;;;5053195;28;20033;-87
2021/08/05 04:46:55;;;;;;;0.53;0.53;;;14.90;1.00;;;;;;5062612;28;20052;-87
2021/08/05 04:49:21;;;;;;;0.27;0.27;;;15.00;1.00;;;;;;5054039;28;20040;-87
2021/08/05 04:51:47;;;;;;;0.10;0.10;;;15.00;1.00;;;;;;5059494;28;20036;-87
2021/08/05 04:54:12;;;;;;;0.00;0.00;;;15.10;1.00;;;;;;5049829;28;20100;-89
2021/08/05 04:56:38;;;;;;;1.17;0.73;;;15.30;1.00;;;;;;5060004;28;20029;-88
2021/08/05 04:59:04;;;;;;;0.00;0.00;;;15.30;1.00;;;;;;5066030;28;20112;-88
2021/08/05 05:01:30;;;;;;;0.03;0.03;;;15.40;1.00;;;;;;5058867;28;20071;-87
2021/08/05 05:03:56;;;;;;;0.50;0.33;;;15.40;1.00;;;;;;5056876;28;20032;-88
2021/08/05 05:06:21;;;;;;;0.20;0.20;;;15.30;1.00;;;;;;5064967;28;20028;-87
2021/08/05 05:08:47;;;;;;;0.20;0.20;;;15.30;1.00;;;;;;5059053;28;20069;-88
2021/08/05 05:11:13;;;;;;;0.20;0.20;;;15.40;1.00;;;;;;5061417;28;20051;-87
2021/08/05 05:13:39;;;;;;;0.00;0.00;;;15.50;1.00;;;;;;5051232;28;20029;-86
2021/08/05 05:16:05;;;;;;;0.20;0.20;;;15.40;1.00;;;;;;5059176;28;20406;-87
2021/08/05 05:18:32;;;;;;;0.00;0.00;;;15.50;1.00;;;;;;5057867;28;20036;-88
2021/08/05 05:20:58;;;;;;;1.80;1.45;;;15.40;1.00;;;;;;5067145;28;20043;-88
2021/08/05 05:23:24;;;;;;;0.10;0.10;;;15.50;1.00;;;;;;5051864;28;20033;-88
2021/08/05 05:25:49;;;;;;;0.10;0.10;;;15.50;1.00;;;;;;5055522;28;20033;-88
2021/08/05 05:28:15;;;;;;;0.23;0.10;;;15.50;1.00;;;;;;5060596;28;20024;-88
2021/08/05 05:30:42;;;;;;;0.07;0.03;;;15.40;1.00;;;;;;5062454;28;20063;-88
2021/08/05 05:33:08;;;;;;;0.00;0.00;;;15.40;1.00;;;;;;5064766;28;20029;-87
2021/08/05 05:35:35;;;;;;;0.38;0.38;;;15.50;1.00;;;;;;5056326;28;20032;-88
2021/08/05 05:38:02;;;;;;;0.00;0.00;;;15.50;1.00;;;;;;5060930;28;20043;-87
2021/08/05 05:40:29;;;;;;;0.00;0.00;;;15.70;1.00;;;;;;5054959;28;20048;-89
2021/08/05 05:42:55;;;;;;;;;;;15.80;99.90;;;;;;5060800;28;20432;-87
2021/08/05 05:45:23;;;;;;;0.10;0.10;;;15.90;99.90;;;;;;5059518;28;19971;-87
2021/08/05 05:47:50;;;;;;;0.00;0.00;;;16.10;99.90;;;;;;5057860;28;20498;-89
2021/08/05 05:50:18;;;;;;;0.10;0.10;;;16.40;99.90;;;;;;5058275;28;20441;-89
2021/08/05 05:52:47;;;;;;;0.15;0.15;;;16.70;99.90;;;;;;5068344;28;20177;-88
2021/08/05 05:55:14;;;;;;;0.00;0.00;;;16.90;99.90;;;;;;5061929;28;20024;-87
2021/08/05 05:57:41;;;;;;;0.13;0.13;;;17.20;99.90;;;;;;5059959;28;20024;-86
2021/08/05 06:00:08;;;;;;;0.00;0.00;;;17.40;99.90;;;;;;5058893;28;20024;-88
2021/08/05 06:02:35;;;;;;;0.00;0.00;;;17.70;99.90;;;;;;5051973;28;20052;-87
2021/08/05 06:05:02;;;;;;;0.00;0.00;;;17.90;99.90;;;;;;5052705;28;20867;-87
2021/08/05 06:07:28;;;;;;;0.20;0.20;;;18.10;99.90;;;;;;5057622;28;20032;-86
2021/08/05 06:09:55;;;;;;;1.65;0.73;;;18.40;99.90;;;;;;5056284;28;20047;-89
2021/08/05 06:12:21;;;;;;;2.88;0.50;;;18.40;99.90;;;;;;5055969;28;20770;-89
2021/08/05 06:14:49;;;;;;;0.30;0.30;;;18.30;99.90;;;;;;5057841;28;20537;-90
2021/08/05 06:17:19;;;;;;;0.08;0.08;;;18.20;99.90;;;;;;5039885;28;20666;-90
2021/08/05 06:19:45;;;;;;;0.10;0.10;;;17.60;99.90;;;;;;5055992;28;20039;-89
2021/08/05 06:22:12;;;;;;;0.13;0.13;;;17.40;99.90;;;;;;5059610;28;20810;-89
2021/08/05 06:24:39;;;;;;;0.65;0.65;;;17.80;99.90;;;;;;5055214;28;20025;-88
2021/08/05 06:27:05;;;;;;;;;;;17.30;99.90;;;;;;5052716;28;20036;-87
2021/08/05 06:29:32;;;;;;;0.00;0.00;;;17.30;99.90;;;;;;5061373;28;19920;-87
2021/08/05 06:31:58;;;;;;;0.10;0.10;;;16.70;99.90;;;;;;5056165;28;20036;-88
2021/08/05 06:34:24;;;;;;;0.13;0.13;;;16.70;99.90;;;;;;5056569;28;20035;-88
2021/08/05 06:36:50;;;;;;;0.10;0.10;;;16.60;99.90;;;;;;5055044;28;20028;-88
2021/08/05 06:39:17;;;;;;;0.20;0.20;;;16.80;99.90;;;;;;5058688;28;20039;-87
2021/08/05 06:41:42;;;;;;;;;;;17.10;99.90;;;;;;5062205;28;20051;-87
2021/08/05 06:44:08;;;;;;;0.00;0.00;;;17.50;99.90;;;;;;5057999;28;20373;-87
2021/08/05 06:46:36;;;;;;;0.10;0.10;;;17.50;99.90;;;;;;5053606;28;20036;-89
2021/08/05 06:49:02;;;;;;;0.00;0.00;;;17.50;99.90;;;;;;5052424;28;20405;-88
2021/08/05 06:51:28;;;;;;;0.87;0.87;;;17.30;99.90;;;;;;5053029;28;20033;-88
2021/08/05 06:53:53;;;;;;;0.00;0.00;;;17.50;99.90;;;;;;5055169;28;20048;-88
2021/08/05 06:56:19;;;;;;;0.13;0.07;;;17.70;99.90;;;;;;5063092;28;20024;-87
2021/08/05 06:58:45;;;;;;;0.00;0.00;;;18.30;99.90;;;;;;5056514;28;20146;-88
2021/08/05 07:01:11;;;;;;;1.17;0.93;;;18.10;99.90;;;;;;5056140;28;20064;-89
2021/08/05 07:03:37;;;;;;;0.00;0.00;;;18.00;99.90;;;;;;5058191;28;20482;-89
2021/08/05 07:06:05;;;;;;;0.00;0.00;;;17.70;99.90;;;;;;5051121;28;20028;-89
2021/08/05 07:08:31;;;;;;;0.10;0.10;;;17.50;99.90;;;;;;5055967;28;20528;-90
2021/08/05 07:10:57;;;;;;;0.00;0.00;;;17.30;99.90;;;;;;5061506;28;20029;-88
2021/08/05 07:13:23;;;;;;;0.00;0.00;;;17.20;99.90;;;;;;5060359;28;20091;-89
2021/08/05 07:15:48;;;;;;;0.00;0.00;;;17.30;99.90;;;;;;5057896;28;20063;-89
2021/08/05 07:18:14;;;;;;;0.43;0.43;;;17.60;99.90;;;;;;5050158;28;20119;-88
2021/08/05 07:20:40;;;;;;;0.00;0.00;;;17.70;99.90;;;;;;5050958;28;20111;-89
2021/08/05 07:23:06;;;;;;;0.17;0.17;;;17.90;99.90;;;;;;5060835;28;20075;-86
2021/08/05 07:25:31;;;;;;;0.00;0.00;;;18.40;99.90;;;;;;5052666;28;20033;-86
2021/08/05 07:28:01;;;;;;;0.10;0.10;;;19.10;99.90;;;;;;5054975;28;20448;-86
2021/08/05 07:30:27;;;;;;;0.30;0.10;;;20.60;99.90;;;;;;5059787;28;20031;-85
2021/08/05 07:32:55;;;;;;;0.05;0.05;;;22.60;99.90;;;;;;5054210;28;20159;-87
2021/08/05 07:35:21;;;;;;;0.00;0.00;;;24.60;99.90;;;;;;5052080;28;20090;-86
2021/08/05 07:37:47;;;;;;;0.00;0.00;;;30.40;99.90;;;;;;5055452;28;20098;-87
2021/08/05 07:40:16;;;;;;;0.00;0.00;;;29.10;99.90;;;;;;5054109;28;20029;-87
2021/08/05 07:42:44;;;;;;;0.03;0.03;;;30.50;99.90;;;;;;5053763;28;20793;-87
2021/08/05 07:45:12;;;;;;;0.10;0.10;;;33.10;99.90;;;;;;5053937;28;20718;-87
2021/08/05 07:47:38;;;;;;;0.13;0.00;;;35.00;96.80;;;;;;5053814;28;20605;-87
2021/08/05 07:50:10;;;;;;;0.00;0.00;;;32.50;96.90;;;;;;5066646;28;20099;-88
2021/08/05 07:52:37;;;;;;;0.00;0.00;;;27.40;99.10;;;;;;5050817;28;20025;-88
2021/08/05 07:55:05;;;;;;;0.00;0.00;;;25.00;99.90;;;;;;5058246;28;20488;-88
2021/08/05 07:57:32;;;;;;;0.00;0.00;;;24.80;99.90;;;;;;5062562;28;20039;-88
2021/08/05 08:00:00;;;;;;;0.10;0.10;;;25.30;99.90;;;;;;5059093;28;20067;-87
2021/08/05 08:02:28;;;;;;;0.00;0.00;;;24.90;99.90;;;;;;5063800;28;20545;-87
2021/08/05 08:04:55;;;;;;;1.08;0.30;;;25.00;99.90;;;;;;5061552;28;20445;-87
2021/08/05 08:07:21;;;;;;;;;;;26.20;99.90;;;;;;5059594;28;20672;-87
2021/08/05 08:09:47;;;;;;;;;;;27.80;99.90;;;;;;5063089;28;20296;-87
2021/08/05 08:12:15;;;;;;;0.03;0.03;;;27.80;97.40;;;;;;5061492;28;20313;-88
2021/08/05 08:14:42;;;;;;;0.00;0.00;;;31.30;93.50;;;;;;5059564;28;20035;-87
2021/08/05 08:17:09;;;;;;;0.88;0.30;;;36.80;81.20;;;;;;5055789;28;20059;-88
2021/08/05 08:19:36;;;;;;;0.88;0.88;;;37.70;68.90;;;;;;5057774;28;20480;-88
2021/08/05 08:22:15;;;;;;;0.00;0.00;;;38.20;60.50;;;;;;5058735;28;20561;-88
2021/08/05 08:24:46;;;;;;;0.00;0.00;;;36.60;63.20;;;;;;5059074;28;20033;-88
2021/08/05 08:27:11;;;;;;;;;;;33.60;67.20;;;;;;5057186;28;20033;-87
2021/08/05 08:29:37;;;;;;;0.30;0.30;;;28.30;75.50;;;;;;5055109;28;19916;-88
2021/08/05 08:32:03;;;;;;;0.10;0.10;;;28.40;82.50;;;;;;5053369;28;20511;-88
2021/08/05 08:34:29;;;;;;;0.57;0.40;;;33.80;76.10;;;;;;5060809;28;20097;-88
2021/08/05 08:36:56;;;;;;;0.00;0.00;;;34.40;60.30;;;;;;5067383;28;20032;-88
2021/08/05 08:39:23;;;;;;;0.00;0.00;;;32.20;65.80;;;;;;5057167;28;20048;-88
2021/08/05 08:41:50;;;;;;;0.00;0.00;;;29.90;68.80;;;;;;5052530;28;20037;-88
2021/08/05 08:44:17;;;;;;;0.00;0.00;;;28.90;72.40;;;;;;5057994;28;20036;-87
2021/08/05 08:46:43;;;;;;;1.55;0.35;;;26.50;82.10;;;;;;5054101;28;20017;-88
2021/08/05 08:49:10;;;;;;;0.00;0.00;;;25.10;88.00;;;;;;5060569;28;20493;-88
2021/08/05 08:51:36;;;;;;;0.00;0.00;;;24.50;90.90;;;;;;5056351;28;20890;-88
2021/08/05 08:54:08;;;;;;;0.45;0.22;;;24.40;92.70;;;;;;5051960;28;20032;-88
2021/08/05 08:56:37;;;;;;;0.65;0.10;;;23.70;93.00;;;;;;5057156;28;20035;-88
2021/08/05 08:59:05;;;;;;;0.00;0.00;;;23.30;93.90;;;;;;5058912;28;20063;-88
2021/08/05 09:01:32;;;;;;;0.25;0.25;;;23.20;94.20;;;;;;5055301;28;20033;-88
2021/08/05 09:03:58;;;;;;;;;;;23.30;99.90;;;;;;5056473;28;20500;-88
2021/08/05 09:06:24;;;;;;;;;;;22.40;96.80;;;;;;5055710;28;19912;-87
2021/08/05 09:08:52;;;;;;;0.00;0.00;;;21.40;99.90;;;;;;5055716;28;20407;-87
2021/08/05 09:11:19;;;;;;;0.05;0.05;;;22.00;99.90;;;;;;5057734;28;20449;-88
2021/08/05 09:13:45;;;;;;;;;;;22.90;98.50;;;;;;5055198;28;20148;-89
2021/08/05 09:16:30;;;;;;;0.05;0.05;;;22.20;98.70;;;;;;5055901;28;20511;-89
2021/08/05 09:19:20;;;;;;;0.00;0.00;;;22.10;99.90;;;;;;5059089;28;20033;-89
2021/08/05 09:22:01;;;;;;;0.00;0.00;;;21.90;99.90;;;;;;5055055;28;20021;-89
2021/08/05 09:24:31;;;;;;;0.10;0.10;;;21.80;99.90;;;;;;5052841;28;20021;-89
2021/08/05 09:27:02;;;;;;;0.00;0.00;;;22.50;99.60;;;;;;5051825;28;20036;-89
2021/08/05 09:29:30;;;;;;;0.00;0.00;;;21.90;99.90;;;;;;5032956;28;20037;-90
2021/08/05 09:32:03;;;;;;;0.13;0.10;;;22.40;99.90;;;;;;5054016;28;20033;-89
2021/08/05 09:34:39;;;;;;;0.00;0.00;;;30.00;92.40;;;;;;5060593;28;20020;-89
2021/08/05 09:37:08;;;;;;;0.05;0.05;;;32.30;82.90;;;;;;5060778;28;20615;-87
2021/08/05 09:39:45;;;;;;;0.00;0.00;;;32.60;72.20;;;;;;5064841;28;20027;-89
2021/08/05 09:42:15;;;;;;;0.00;0.00;;;30.60;76.30;;;;;;5056146;28;20053;-87
2021/08/05 09:44:45;;;;;;;0.00;0.00;;;29.80;90.40;;;;;;5054338;28;20025;-88
2021/08/05 09:47:18;;;;;;;0.00;0.00;;;35.30;68.70;;;;;;5068268;28;20016;-88
2021/08/05 09:49:49;;;;;;;0.00;0.00;;;35.30;62.70;;;;;;5069770;28;20012;-88
2021/08/05 09:52:24;;;;;;;0.00;0.00;;;32.60;64.80;;;;;;5051315;28;20059;-90
2021/08/05 09:54:53;;;;;;;0.10;0.10;;;30.50;70.00;;;;;;5059231;28;20563;-88
2021/08/05 09:57:23;;;;;;;0.00;0.00;;;34.20;60.50;;;;;;5063618;28;20371;-90
2021/08/05 10:00:17;;;;;;;0.00;0.00;;;35.60;57.10;;;;;;5050562;28;20036;-88
2021/08/05 10:02:58;;;;;;;0.05;0.05;;;35.50;55.20;;;;;;5058430;28;20037;-90
2021/08/05 10:05:28;;;;;;;0.30;0.30;;;37.50;53.60;;;;;;5067537;28;20043;-89
2021/08/05 10:08:01;;;;;;;0.10;0.10;;;36.40;52.40;;;;;;5066444;28;20090;-90
2021/08/05 10:10:48;;;;;;;0.00;0.00;;;31.40;60.70;;;;;;5068056;28;20024;-87
2021/08/05 10:13:25;;;;;;;0.00;0.00;;;27.00;72.20;;;;;;5050093;28;20056;-89
2021/08/05 10:15:55;;;;;;;0.38;0.35;;;25.30;78.90;;;;;;5060753;28;20028;-89
2021/08/05 10:18:29;;;;;;;0.00;0.00;;;24.90;76.40;;;;;;5061773;28;20514;-89
2021/08/05 10:21:02;;;;;;;0.45;0.45;;;25.80;78.80;;;;;;5066230;28;20412;-89
2021/08/05 10:23:30;;;;;;;0.32;0.32;;;27.30;82.60;;;;;;5067745;28;20028;-89
2021/08/05 10:25:59;;;;;;;7.65;0.57;;;29.00;79.50;;;;;;5053741;28;20025;-89
2021/08/05 10:28:28;;;;;;;0.45;0.22;;;30.30;69.50;;;;;;5052657;28;20024;-89
2021/08/05 10:30:56;;;;;;;0.85;0.47;;;32.40;62.60;;;;;;5069345;28;20047;-89
2021/08/05 10:33:25;;;;;;;0.65;0.65;;;35.00;54.20;;;;;;5057974;28;20020;-89
2021/08/05 10:35:52;;;;;;;0.75;0.55;;;34.70;53.60;;;;;;5061679;28;20028;-89
2021/08/05 10:38:21;;;;;;;0.00;0.00;;;32.60;56.50;;;;;;5055587;28;20017;-89
2021/08/05 10:40:50;;;;;;;0.45;0.40;;;29.40;64.20;;;;;;5067802;28;20122;-89
2021/08/05 10:43:17;;;;;;;0.08;0.08;;;30.60;62.90;;;;;;5061148;28;20093;-89
2021/08/05 10:45:46;;;;;;;0.28;0.20;;;28.40;66.70;;;;;;5053222;28;20048;-89
2021/08/05 10:48:16;;;;;;;0.00;0.00;;;29.00;65.90;;;;;;5046894;28;20466;-89
2021/08/05 10:50:48;;;;;;;0.13;0.13;;;27.90;71.10;;;;;;5051944;28;20027;-89
2021/08/05 10:53:49;;;;;;;0.10;0.10;;;26.20;78.30;;;;;;5059815;28;20135;-88
2021/08/05 10:56:24;;;;;;;0.25;0.25;;;26.00;81.30;;;;;;5050388;28;20048;-90
2021/08/05 10:59:11;;;;;;;0.00;0.00;;;26.70;74.80;;;;;;5059548;28;20071;-91
2021/08/05 11:01:43;;;;;;;0.00;0.00;;;27.40;73.90;;;;;;5040045;28;20118;-91
2021/08/05 11:04:30;;;;;;;0.00;0.00;;;28.40;70.70;;;;;;5058058;28;20020;-92
2021/08/05 11:06:55;;;;;;;0.00;0.00;;;27.70;72.80;;;;;;5062272;28;20072;-92
2021/08/05 11:09:30;;;;;;;0.00;0.00;;;28.10;71.90;;;;;;5045497;28;20507;-91
2021/08/05 11:12:38;;;;;;;4.47;0.40;;;27.10;72.50;;;;;;5066215;28;20037;-91
2021/08/05 11:15:26;;;;;;;0.00;0.00;;;27.20;74.00;;;;;;5041670;28;20115;-92
2021/08/05 11:18:08;;;;;;;0.10;0.10;;;27.20;73.30;;;;;;5054738;28;20033;-91
2021/08/05 11:20:36;;;;;;;0.00;0.00;;;27.70;71.20;;;;;;5050058;28;20052;-92
2021/08/05 11:23:04;;;;;;;0.00;0.00;;;27.00;73.20;;;;;;5039489;28;20037;-92
2021/08/05 11:25:52;;;;;;;0.08;0.08;;;27.10;72.60;;;;;;5042444;28;20020;-93
2021/08/05 11:28:24;;;;;;;0.10;0.10;;;27.10;72.50;;;;;;5051138;28;20040;-93
2021/08/05 11:31:01;;;;;;;0.00;0.00;;;27.00;73.30;;;;;;5036804;28;20044;-91
2021/08/05 11:34:09;;;;;;;0.10;0.10;;;26.30;74.50;;;;;;5051016;28;20025;-91
2021/08/05 11:36:43;;;;;;;0.15;0.03;;;26.40;75.50;;;;;;5063884;28;20024;-89
2021/08/05 11:39:23;;;;;;;1.85;1.05;;;26.50;73.30;;;;;;5058337;28;20035;-89
2021/08/05 11:41:55;;;;;;;0.82;0.65;;;27.20;74.30;;;;;;5053689;28;20049;-89
2021/08/05 11:44:59;;;;;;;0.00;0.00;;;27.60;72.90;;;;;;5054575;28;20107;-89
2021/08/05 11:47:40;;;;;;;0.17;0.17;;;27.50;71.70;;;;;;5063163;28;20025;-88
2021/08/05 11:50:16;;;;;;;0.00;0.00;;;27.30;71.10;;;;;;5054587;28;20059;-88
2021/08/05 11:52:48;;;;;;;1.35;0.98;;;27.00;73.80;;;;;;5058152;28;20060;-88
2021/08/05 11:55:25;;;;;;;0.17;0.17;;;26.80;73.50;;;;;;5060118;28;20083;-88
2021/08/05 11:57:52;;;;;;;;;;;26.40;74.50;;;;;;5057388;28;20017;-89
2021/08/05 12:00:22;;;;;;;0.13;0.13;;;26.30;76.00;;;;;;5058386;28;19915;-88
2021/08/05 12:02:51;;;;;;;0.10;0.00;;;26.70;73.80;;;;;;5057301;28;20397;-89
2021/08/05 12:05:21;;;;;;;0.15;0.15;;;26.90;72.70;;;;;;5056547;28;20044;-89
2021/08/05 12:07:49;;;;;;;0.00;0.00;;;26.40;73.00;;;;;;5050615;28;20048;-89
2021/08/05 12:10:29;;;;;;;0.00;0.00;;;26.90;73.80;;;;;;5060850;28;20123;-89
2021/08/05 12:13:04;;;;;;;0.10;0.10;;;26.70;72.40;;;;;;5056833;28;20754;-91
2021/08/05 12:15:31;;;;;;;0.00;0.00;;;27.10;69.90;;;;;;5053199;28;20028;-88
2021/08/05 12:18:07;;;;;;;0.40;0.40;;;28.10;68.20;;;;;;5050981;28;20044;-89
2021/08/05 12:20:47;;;;;;;0.10;0.10;;;27.60;72.90;;;;;;5058369;28;20525;-88
2021/08/05 12:23:23;;;;;;;0.08;0.08;;;28.00;66.60;;;;;;5050995;28;20033;-88
2021/08/05 12:26:01;;;;;;;0.00;0.00;;;27.70;68.10;;;;;;5060032;28;20801;-88
2021/08/05 12:28:34;;;;;;;0.10;0.10;;;27.30;68.10;;;;;;5052019;28;20050;-88
2021/08/05 12:31:03;;;;;;;0.03;0.03;;;27.40;69.50;;;;;;5051987;28;20020;-88
2021/08/05 12:33:32;;;;;;;10.98;0.90;;;26.80;70.30;;;;;;5049830;28;20033;-84
2021/08/05 12:36:09;;;;;;;0.10;0.10;;;26.60;74.10;;;;;;5053925;28;20021;-85
2021/08/05 12:38:56;;;;;;;0.57;0.57;;;26.10;73.40;;;;;;5058200;28;20029;-84
2021/08/05 12:41:28;;;;;;;1.63;1.17;;;25.90;75.20;;;;;;5059323;28;20028;-85
2021/08/05 12:44:23;;;;;;;17.83;2.85;;;25.60;82.50;;;;;;5059788;28;20124;-84
2021/08/05 12:46:55;;;;;;;0.00;0.00;;;24.80;78.20;;;;;;5054726;28;20032;-85
2021/08/05 12:49:37;;;;;;;0.32;0.25;;;24.80;76.30;;;;;;5056564;28;20040;-85
2021/08/05 12:52:05;;;;;;;1.00;0.75;;;25.10;75.80;;;;;;5056537;28;20031;-85
2021/08/05 12:54:33;;;;;;;0.00;0.00;;;24.90;77.30;;;;;;5055477;28;20054;-85
2021/08/05 12:57:10;;;;;;;2.13;1.50;;;24.70;83.50;;;;;;5061596;28;20024;-85
2021/08/05 12:59:46;;;;;;;0.85;0.45;;;24.60;86.20;;;;;;5062702;28;20107;-84
2021/08/05 13:02:14;;;;;;;0.52;0.52;;;24.40;87.10;;;;;;5061023;28;20025;-85
2021/08/05 13:04:42;;;;;;;0.10;0.10;;;24.70;84.50;;;;;;5057961;28;20158;-85
2021/08/05 13:07:10;;;;;;;0.75;0.73;;;25.60;78.40;;;;;;5057156;28;20019;-85